Time;durP1;ratioP1;P1;durP2;ratioP2;P2;SDS_P1;SDS_P2;PMS_P1;PMS_P2;Temp;Humidity;BMP_temperature;BMP_pressure;BME280_temperature;BME280_humidity;BME280_pressure;Samples;Min_cycle;Max_cycle;Signal;HPM_P1;HPM_P2
2022/10/28 00:00:31;;;;;;;;;;;;;;;15.76;100.00;101168.53;4459205;32;35817;-73
2022/10/28 00:03:18;;;;;;;;;;;;;;;15.62;100.00;101176.00;4456638;32;36113;-73
2022/10/28 00:06:05;;;;;;;;;;;;;;;15.72;100.00;101171.09;4458658;32;34618;-74
2022/10/28 00:08:50;;;;;;;;;;;;;;;15.58;100.00;101166.69;4442413;32;35063;-73
2022/10/28 00:11:36;;;;;;;;;;;;;;;15.82;100.00;101166.50;4458673;32;34939;-73
2022/10/28 00:14:23;;;;;;;;;;;;;;;14.92;100.00;101164.06;4443066;32;35254;-74
2022/10/28 00:17:09;;;;;;;;;;;;;;;15.33;100.00;101163.28;4441434;32;34819;-74
2022/10/28 00:19:57;;;;;;;;;;;;;;;15.60;100.00;101162.50;4443144;32;34098;-73
2022/10/28 00:22:43;;;;;;;;;;;;;;;15.33;100.00;101168.00;4461979;32;34986;-74
2022/10/28 00:25:30;;;;;;;;;;;;;;;15.45;100.00;101165.56;4442111;32;35415;-74
2022/10/28 00:28:16;;;;;;;;;;;;;;;15.65;100.00;101167.09;4442610;32;34462;-74
2022/10/28 00:31:06;;;;;;;;;;;;;;;15.45;100.00;101162.78;4462060;32;34932;-74
2022/10/28 00:33:54;;;;;;;;;;;;;;;15.65;100.00;101165.16;4432748;32;34974;-73
2022/10/28 00:36:41;;;;;;;;;;;;;;;15.17;100.00;101164.72;4443092;32;35237;-73
2022/10/28 00:39:27;;;;;;;;;;;;;;;15.45;100.00;101166.41;4440683;32;35762;-73
2022/10/28 00:42:17;;;;;;;;;;;;;;;15.27;100.00;101162.56;4459828;32;35044;-74
2022/10/28 00:45:04;;;;;;;;;;;;;;;15.61;100.00;101172.41;4457824;32;35760;-73
2022/10/28 00:47:55;;;;;;;;;;;;;;;15.52;100.00;101165.97;4457235;32;35433;-73
2022/10/28 00:50:46;;;;;;;;;;;;;;;15.46;100.00;101164.44;4459220;32;35041;-73
2022/10/28 00:56:30;;;;;;;;;;;;;;;15.43;100.00;101162.31;4443281;32;35747;-74
2022/10/28 00:59:26;;;;;;;;;;;;;;;15.20;100.00;101159.41;4444944;32;33431;-74
2022/10/28 01:02:12;;;;;;;;;;;;;;;15.23;100.00;101164.31;4402663;32;1321129;-74
2022/10/28 01:04:58;;;;;;;;;;;;;;;15.48;100.00;101162.19;4457369;32;34209;-74
2022/10/28 01:07:44;;;;;;;;;;;;;;;15.54;100.00;101158.22;4440961;32;34878;-73
2022/10/28 01:10:37;;;;;;;;;;;;;;;15.37;100.00;101149.69;4441510;32;35266;-74
2022/10/28 01:13:23;;;;;;;;;;;;;;;15.38;100.00;101159.63;4441057;32;35553;-73
2022/10/28 01:16:30;;;;;;;;;;;;;;;15.26;100.00;101155.44;4459619;32;34180;-73
2022/10/28 01:19:43;;;;;;;;;;;;;;;15.58;100.00;101156.44;4455899;32;35885;-74
2022/10/28 01:22:35;;;;;;;;;;;;;;;15.13;100.00;101147.94;4441291;32;36197;-74
2022/10/28 01:25:21;;;;;;;;;;;;;;;15.09;100.00;101151.63;4440260;32;35863;-74
2022/10/28 01:28:12;;;;;;;;;;;;;;;15.42;100.00;101147.66;4459850;32;34132;-73
2022/10/28 01:31:08;;;;;;;;;;;;;;;15.04;100.00;101144.25;4458055;32;35406;-73
2022/10/28 01:34:07;;;;;;;;;;;;;;;15.18;100.00;101139.56;4458598;32;35339;-73
2022/10/28 01:37:04;;;;;;;;;;;;;;;15.40;100.00;101143.59;4456635;32;34735;-73
2022/10/28 01:39:55;;;;;;;;;;;;;;;14.97;100.00;101141.06;4464856;32;33800;-73
2022/10/28 01:43:01;;;;;;;;;;;;;;;15.31;100.00;101137.94;4443386;32;34999;-74
2022/10/28 01:46:01;;;;;;;;;;;;;;;15.01;100.00;101139.34;4462978;32;36149;-74
2022/10/28 01:48:51;;;;;;;;;;;;;;;15.17;100.00;101132.41;4442154;32;35860;-74
2022/10/28 01:51:45;;;;;;;;;;;;;;;15.00;100.00;101133.00;4443746;32;35131;-73
2022/10/28 01:54:35;;;;;;;;;;;;;;;15.11;100.00;101139.13;4445134;32;34872;-73
2022/10/28 01:57:21;;;;;;;;;;;;;;;15.25;100.00;101145.53;4444235;32;35972;-73
2022/10/28 02:00:08;;;;;;;;;;;;;;;15.06;100.00;101147.53;4441781;32;35620;-73
2022/10/28 02:02:58;;;;;;;;;;;;;;;14.94;100.00;101144.44;4433701;32;32648;-73
2022/10/28 02:05:47;;;;;;;;;;;;;;;15.12;100.00;101142.75;4457443;32;34795;-73
2022/10/28 02:08:33;;;;;;;;;;;;;;;15.07;100.00;101138.13;4463891;32;35243;-73
2022/10/28 02:11:19;;;;;;;;;;;;;;;14.89;100.00;101137.06;4458662;32;34878;-74
2022/10/28 02:14:21;;;;;;;;;;;;;;;15.31;100.00;101143.44;4460095;32;34138;-73
2022/10/28 02:17:23;;;;;;;;;;;;;;;15.30;100.00;101142.63;4458833;32;35044;-74
2022/10/28 02:20:32;;;;;;;;;;;;;;;15.17;100.00;101129.66;4441461;32;35131;-74
2022/10/28 02:23:21;;;;;;;;;;;;;;;14.87;100.00;101130.22;4435097;32;34906;-73
2022/10/28 02:26:16;;;;;;;;;;;;;;;15.05;100.00;101140.34;4443683;32;34892;-73
2022/10/28 02:29:07;;;;;;;;;;;;;;;15.28;100.00;101133.03;4443910;32;35049;-73
2022/10/28 02:31:57;;;;;;;;;;;;;;;15.09;100.00;101137.84;4434655;32;35126;-73
2022/10/28 02:34:46;;;;;;;;;;;;;;;14.90;100.00;101143.41;4444249;32;34753;-73
2022/10/28 02:37:32;;;;;;;;;;;;;;;14.62;100.00;101144.12;4445678;32;34091;-73
2022/10/28 02:40:20;;;;;;;;;;;;;;;14.91;100.00;101143.09;4434136;32;35026;-74
2022/10/28 02:43:06;;;;;;;;;;;;;;;15.20;100.00;101148.38;4442442;32;35171;-74
2022/10/28 02:45:56;;;;;;;;;;;;;;;15.09;100.00;101146.94;4460438;32;36000;-74
2022/10/28 02:48:46;;;;;;;;;;;;;;;14.70;100.00;101144.59;4443664;32;35045;-73
2022/10/28 02:51:34;;;;;;;;;;;;;;;15.21;100.00;101130.66;4444596;32;34977;-73
2022/10/28 02:54:45;;;;;;;;;;;;;;;15.06;100.00;101142.00;4461675;32;35258;-73
2022/10/28 02:57:36;;;;;;;;;;;;;;;15.29;100.00;101127.19;4457707;32;34870;-73
2022/10/28 03:00:23;;;;;;;;;;;;;;;15.06;100.00;101125.44;4442026;32;34131;-73
2022/10/28 03:03:11;;;;;;;;;;;;;;;14.76;100.00;101119.34;4464701;32;34419;-73
2022/10/28 03:05:57;;;;;;;;;;;;;;;15.20;100.00;101129.03;4462241;32;35258;-74
2022/10/28 03:08:44;;;;;;;;;;;;;;;15.22;100.00;101121.25;4460010;32;35024;-74
2022/10/28 03:11:30;;;;;;;;;;;;;;;14.94;100.00;101117.69;4461235;32;34171;-74
2022/10/28 03:14:16;;;;;;;;;;;;;;;14.77;100.00;101118.25;4450027;32;34990;-74
2022/10/28 03:17:03;;;;;;;;;;;;;;;14.78;100.00;101130.91;4460234;32;35149;-73
2022/10/28 03:19:49;;;;;;;;;;;;;;;14.56;100.00;101128.78;4432802;32;35274;-74
2022/10/28 03:22:35;;;;;;;;;;;;;;;14.81;100.00;101127.53;4461460;32;33026;-74
2022/10/28 03:25:21;;;;;;;;;;;;;;;14.70;100.00;101130.78;4461894;32;35802;-73
2022/10/28 03:28:07;;;;;;;;;;;;;;;14.83;100.00;101128.06;4441846;32;36124;-74
2022/10/28 03:30:55;;;;;;;;;;;;;;;14.46;100.00;101128.09;4442039;32;34942;-73
2022/10/28 03:33:41;;;;;;;;;;;;;;;14.44;100.00;101136.69;4442984;32;34859;-73
2022/10/28 03:36:27;;;;;;;;;;;;;;;15.05;100.00;101141.19;4459292;32;35955;-74
2022/10/28 03:39:14;;;;;;;;;;;;;;;15.09;100.00;101130.38;4444979;32;35234;-73
2022/10/28 03:42:01;;;;;;;;;;;;;;;15.10;100.00;101131.19;4458706;32;35986;-73
2022/10/28 03:44:47;;;;;;;;;;;;;;;14.69;100.00;101135.50;4443598;32;34328;-73
2022/10/28 03:47:34;;;;;;;;;;;;;;;13.70;100.00;101139.16;4459843;32;34953;-74
2022/10/28 03:50:24;;;;;;;;;;;;;;;13.89;100.00;101134.50;4433344;32;33621;-73
2022/10/28 03:53:11;;;;;;;;;;;;;;;14.01;100.00;101127.72;4443323;32;34360;-74
2022/10/28 03:55:59;;;;;;;;;;;;;;;14.46;100.00;101122.59;4431625;32;34026;-74
2022/10/28 03:58:47;;;;;;;;;;;;;;;14.78;100.00;101125.41;4432983;32;34958;-74
2022/10/28 04:01:35;;;;;;;;;;;;;;;14.19;100.00;101129.63;4442058;32;35148;-73
2022/10/28 04:04:22;;;;;;;;;;;;;;;14.74;100.00;101121.63;4457998;32;34993;-73
2022/10/28 04:07:15;;;;;;;;;;;;;;;14.93;100.00;101126.25;4451624;32;34249;-73
2022/10/28 04:10:04;;;;;;;;;;;;;;;14.95;100.00;101122.06;4436292;32;35864;-73
2022/10/28 04:12:52;;;;;;;;;;;;;;;14.96;100.00;101120.91;4451876;32;34716;-73
2022/10/28 04:15:41;;;;;;;;;;;;;;;15.07;100.00;101118.81;4451809;32;34957;-73
2022/10/28 04:18:29;;;;;;;;;;;;;;;14.78;100.00;101110.78;4423476;32;34930;-74
2022/10/28 04:21:19;;;;;;;;;;;;;;;14.97;100.00;101110.69;4436140;32;34856;-73
2022/10/28 04:24:06;;;;;;;;;;;;;;;14.83;100.00;101103.25;4452306;32;35146;-74
2022/10/28 04:26:54;;;;;;;;;;;;;;;14.66;100.00;101105.75;4425671;32;34807;-74
2022/10/28 04:29:47;;;;;;;;;;;;;;;14.54;100.00;101108.16;4433287;32;34001;-73
2022/10/28 04:32:39;;;;;;;;;;;;;;;14.68;100.00;101102.69;4434867;32;34866;-74
2022/10/28 04:35:26;;;;;;;;;;;;;;;15.03;100.00;101103.97;4452608;32;35176;-81
2022/10/28 04:38:14;;;;;;;;;;;;;;;14.96;100.00;101098.84;4450379;32;34839;-82
2022/10/28 04:41:00;;;;;;;;;;;;;;;14.72;100.00;101104.53;4449159;32;33901;-82
2022/10/28 04:43:47;;;;;;;;;;;;;;;14.88;100.00;101104.25;4430993;32;34997;-82
2022/10/28 04:46:32;;;;;;;;;;;;;;;14.99;100.00;101091.91;4448231;32;35232;-82
2022/10/28 04:49:19;;;;;;;;;;;;;;;14.49;100.00;101097.19;4449960;32;34549;-82
2022/10/28 04:52:08;;;;;;;;;;;;;;;14.79;100.00;101088.41;4431917;32;33781;-81
2022/10/28 04:55:02;;;;;;;;;;;;;;;14.74;100.00;101087.66;4431034;32;35958;-82
2022/10/28 04:57:56;;;;;;;;;;;;;;;14.44;100.00;101080.72;4448867;32;34730;-82
2022/10/28 05:00:43;;;;;;;;;;;;;;;14.92;100.00;101083.22;4432995;32;36578;-82
2022/10/28 05:03:29;;;;;;;;;;;;;;;14.78;100.00;101092.28;4450143;32;34502;-82
2022/10/28 05:06:18;;;;;;;;;;;;;;;14.40;100.00;101092.38;4437195;32;33653;-82
2022/10/28 05:09:05;;;;;;;;;;;;;;;14.85;100.00;101089.94;4443973;32;35411;-82
2022/10/28 05:11:53;;;;;;;;;;;;;;;14.88;100.00;101085.75;4445984;32;35810;-82
2022/10/28 05:14:42;;;;;;;;;;;;;;;14.82;100.00;101087.78;4437880;32;34098;-82
2022/10/28 05:17:29;;;;;;;;;;;;;;;14.67;100.00;101090.84;4449697;32;34961;-82
2022/10/28 05:20:17;;;;;;;;;;;;;;;14.79;100.00;101093.91;4450312;32;35306;-82
2022/10/28 05:23:04;;;;;;;;;;;;;;;14.54;100.00;101088.84;4449477;32;35338;-82
2022/10/28 05:25:56;;;;;;;;;;;;;;;14.75;100.00;101095.66;4431959;32;34018;-82
2022/10/28 05:28:42;;;;;;;;;;;;;;;14.92;100.00;101097.03;4446577;32;34969;-82
2022/10/28 05:31:28;;;;;;;;;;;;;;;14.81;100.00;101102.72;4437727;32;35115;-81
2022/10/28 05:34:23;;;;;;;;;;;;;;;14.67;100.00;101107.38;4449623;32;34889;-81
2022/10/28 05:37:15;;;;;;;;;;;;;;;14.65;100.00;101103.28;4450175;32;35206;-81
2022/10/28 05:40:03;;;;;;;;;;;;;;;14.73;100.00;101111.69;4449735;32;34879;-81
2022/10/28 05:42:49;;;;;;;;;;;;;;;14.82;100.00;101112.63;4415174;32;35636;-82
2022/10/28 05:45:36;;;;;;;;;;;;;;;14.96;100.00;101106.31;4449388;32;34428;-81
2022/10/28 05:48:23;;;;;;;;;;;;;;;14.78;100.00;101108.03;4448899;32;33562;-82
2022/10/28 05:51:10;;;;;;;;;;;;;;;14.76;100.00;101116.59;4436580;32;35648;-81
2022/10/28 05:53:57;;;;;;;;;;;;;;;14.68;100.00;101119.22;4430883;32;35164;-81
2022/10/28 05:56:45;;;;;;;;;;;;;;;14.82;100.00;101120.09;4447844;32;35602;-82
2022/10/28 05:59:33;;;;;;;;;;;;;;;14.05;100.00;101123.25;4448789;32;33933;-82
2022/10/28 06:02:23;;;;;;;;;;;;;;;14.58;100.00;101125.75;4443366;32;34731;-80
2022/10/28 06:05:10;;;;;;;;;;;;;;;14.51;100.00;101125.28;4449058;32;35419;-82
2022/10/28 06:08:00;;;;;;;;;;;;;;;14.39;100.00;101134.03;4435685;32;34331;-82
2022/10/28 06:10:51;;;;;;;;;;;;;;;14.25;100.00;101133.94;4448893;32;34110;-81
2022/10/28 06:13:41;;;;;;;;;;;;;;;14.65;100.00;101134.44;4431426;32;35634;-82
2022/10/28 06:16:30;;;;;;;;;;;;;;;14.65;100.00;101125.34;4434989;32;35280;-82
2022/10/28 06:19:19;;;;;;;;;;;;;;;14.28;100.00;101135.28;4443547;32;34955;-81
2022/10/28 06:22:07;;;;;;;;;;;;;;;14.32;100.00;101134.41;4432287;32;34152;-82
2022/10/28 06:24:59;;;;;;;;;;;;;;;14.50;100.00;101126.41;4438562;32;34448;-82
2022/10/28 06:27:53;;;;;;;;;;;;;;;14.36;100.00;101134.63;4436312;32;35202;-82
2022/10/28 06:30:41;;;;;;;;;;;;;;;14.13;100.00;101136.34;4428342;32;35061;-81
2022/10/28 06:33:27;;;;;;;;;;;;;;;14.31;100.00;101137.44;4429644;32;34258;-82
2022/10/28 06:36:13;;;;;;;;;;;;;;;14.11;100.00;101142.16;4439588;32;35440;-82
2022/10/28 06:39:00;;;;;;;;;;;;;;;14.54;100.00;101130.22;4451912;32;35426;-82
2022/10/28 06:41:50;;;;;;;;;;;;;;;14.57;100.00;101137.88;4428426;32;35750;-82
2022/10/28 06:44:37;;;;;;;;;;;;;;;14.60;100.00;101135.37;4451996;32;34115;-82
2022/10/28 06:47:23;;;;;;;;;;;;;;;14.91;100.00;101147.78;4429056;32;34968;-82
2022/10/28 06:50:10;;;;;;;;;;;;;;;14.66;100.00;101138.00;4439750;32;35344;-82
2022/10/28 06:52:58;;;;;;;;;;;;;;;14.38;100.00;101149.75;4450917;32;35060;-81
2022/10/28 06:55:53;;;;;;;;;;;;;;;14.31;100.00;101154.81;4440394;32;33597;-83
2022/10/28 06:58:41;;;;;;;;;;;;;;;14.60;100.00;101159.37;4428704;32;34556;-82
2022/10/28 07:01:35;;;;;;;;;;;;;;;14.83;100.00;101143.81;4428626;32;35188;-82
2022/10/28 07:04:26;;;;;;;;;;;;;;;14.76;100.00;101155.22;4451510;32;33680;-81
2022/10/28 07:10:12;;;;;;;;;;;;;;;15.09;100.00;101159.91;4445402;32;34714;-82
2022/10/28 07:12:58;;;;;;;;;;;;;;;15.14;100.00;101166.16;4424517;32;35204;-82
2022/10/28 07:15:52;;;;;;;;;;;;;;;14.85;100.00;101158.91;4429054;32;34869;-82
2022/10/28 07:18:40;;;;;;;;;;;;;;;14.71;100.00;101162.75;4449686;32;34090;-82
2022/10/28 07:21:40;;;;;;;;;;;;;;;14.99;100.00;101163.66;4432844;32;34992;-82
2022/10/28 07:24:40;;;;;;;;;;;;;;;14.73;100.00;101155.00;4436355;32;35214;-82
2022/10/28 07:27:39;;;;;;;;;;;;;;;14.67;100.00;101154.28;4443877;32;35470;-82
2022/10/28 07:30:27;;;;;;;;;;;;;;;14.54;100.00;101157.78;4458777;32;34525;-82
2022/10/28 07:33:13;;;;;;;;;;;;;;;14.47;100.00;101157.34;4442293;32;34918;-82
2022/10/28 07:36:02;;;;;;;;;;;;;;;14.67;100.00;101151.53;4439580;32;35249;-82
2022/10/28 07:38:50;;;;;;;;;;;;;;;14.97;100.00;101154.84;4456927;32;34960;-82
2022/10/28 07:41:38;;;;;;;;;;;;;;;15.27;100.00;101164.53;4443513;32;34176;-82
2022/10/28 07:44:29;;;;;;;;;;;;;;;15.07;100.00;101168.50;4459569;32;34526;-82
2022/10/28 07:47:20;;;;;;;;;;;;;;;15.03;100.00;101173.00;4440009;32;36088;-82
2022/10/28 07:50:07;;;;;;;;;;;;;;;14.88;100.00;101171.28;4456596;32;35740;-83
2022/10/28 07:52:54;;;;;;;;;;;;;;;15.06;100.00;101177.91;4443308;32;34746;-83
2022/10/28 07:58:44;;;;;;;;;;;;;;;15.17;100.00;101179.34;4458083;32;35044;-83
2022/10/28 08:01:32;;;;;;;;;;;;;;;15.32;100.00;101177.44;4463417;32;34987;-82
2022/10/28 08:04:20;;;;;;;;;;;;;;;15.24;100.00;101177.00;4459196;32;34098;-82
2022/10/28 08:07:09;;;;;;;;;;;;;;;15.15;100.00;101167.78;4440901;32;34960;-83
2022/10/28 08:10:04;;;;;;;;;;;;;;;14.99;100.00;101170.00;4431595;32;34761;-83
2022/10/28 08:12:56;;;;;;;;;;;;;;;14.86;100.00;101162.53;4428823;32;34955;-82
2022/10/28 08:15:51;;;;;;;;;;;;;;;14.94;100.00;101166.50;4419372;32;33882;-82
2022/10/28 08:18:42;;;;;;;;;;;;;;;14.79;100.00;101160.13;4430330;32;34935;-83
2022/10/28 08:21:36;;;;;;;;;;;;;;;15.08;100.00;101145.28;4428990;32;35166;-82
2022/10/28 08:24:24;;;;;;;;;;;;;;;15.27;100.00;101146.00;4430809;32;33870;-82
2022/10/28 08:27:11;;;;;;;;;;;;;;;14.67;100.00;101145.19;4436414;32;34309;-82
2022/10/28 08:29:57;;;;;;;;;;;;;;;14.99;100.00;101149.88;4436593;32;35961;-82
2022/10/28 08:32:48;;;;;;;;;;;;;;;14.74;100.00;101140.94;4447193;32;36116;-82
2022/10/28 08:35:36;;;;;;;;;;;;;;;14.21;100.00;101146.72;4440493;32;35021;-83
2022/10/28 08:38:25;;;;;;;;;;;;;;;14.87;100.00;101149.53;4433899;32;33618;-83
2022/10/28 08:41:22;;;;;;;;;;;;;;;14.94;100.00;101160.97;4445858;32;35054;-82
2022/10/28 08:44:08;;;;;;;;;;;;;;;14.78;100.00;101168.72;4425313;32;35206;-82
2022/10/28 08:46:56;;;;;;;;;;;;;;;14.79;100.00;101160.13;4446489;32;34857;-83
2022/10/28 08:49:43;;;;;;;;;;;;;;;14.85;100.00;101164.44;4442649;32;34791;-83
2022/10/28 08:52:38;;;;;;;;;;;;;;;14.29;100.00;101172.78;4426994;32;34508;-83
2022/10/28 08:55:35;;;;;;;;;;;;;;;14.53;100.00;101172.72;4426096;32;35200;-83
2022/10/28 08:58:24;;;;;;;;;;;;;;;14.84;100.00;101167.50;4431816;32;34639;-83
2022/10/28 09:01:18;;;;;;;;;;;;;;;14.76;100.00;101171.78;4432090;32;34157;-83
2022/10/28 09:04:31;;;;;;;;;;;;;;;14.94;100.00;101172.87;4430233;32;35802;-83
2022/10/28 09:07:22;;;;;;;;;;;;;;;14.87;100.00;101185.41;4444369;32;35242;-82
2022/10/28 09:10:13;;;;;;;;;;;;;;;15.02;100.00;101180.44;4429399;32;34930;-82
2022/10/28 09:13:13;;;;;;;;;;;;;;;14.91;100.00;101180.91;4425697;32;34036;-83
2022/10/28 09:16:04;;;;;;;;;;;;;;;15.00;100.00;101187.41;4438938;32;35007;-83
2022/10/28 09:18:52;;;;;;;;;;;;;;;14.81;100.00;101196.53;4425991;32;34815;-82
2022/10/28 09:21:50;;;;;;;;;;;;;;;14.87;100.00;101180.72;4429230;32;36247;-83
2022/10/28 09:24:40;;;;;;;;;;;;;;;15.00;100.00;101177.16;4428538;32;34433;-83
2022/10/28 09:27:27;;;;;;;;;;;;;;;14.90;100.00;101177.34;4439079;32;34970;-82
2022/10/28 09:30:33;;;;;;;;;;;;;;;15.05;100.00;101179.84;4441269;32;34812;-82
2022/10/28 09:33:35;;;;;;;;;;;;;;;14.79;100.00;101171.16;4439974;32;34499;-83
2022/10/28 09:36:24;;;;;;;;;;;;;;;14.42;100.00;101179.47;4429520;32;34011;-82
2022/10/28 09:39:17;;;;;;;;;;;;;;;14.68;100.00;101186.25;4425034;32;35593;-83
2022/10/28 09:42:18;;;;;;;;;;;;;;;15.00;100.00;101181.88;4422773;32;35158;-82
2022/10/28 09:45:21;;;;;;;;;;;;;;;14.76;100.00;101182.00;4434627;32;35496;-83
2022/10/28 09:48:16;;;;;;;;;;;;;;;14.61;100.00;101166.53;4417141;32;34232;-82
2022/10/28 09:51:03;;;;;;;;;;;;;;;14.85;100.00;101164.44;4422120;32;35852;-83
2022/10/28 09:53:51;;;;;;;;;;;;;;;14.43;100.00;101170.06;4419688;32;35223;-82
2022/10/28 09:56:40;;;;;;;;;;;;;;;14.90;100.00;101173.75;4441628;32;35731;-82
2022/10/28 09:59:28;;;;;;;;;;;;;;;14.95;100.00;101180.00;4430878;32;34240;-83
2022/10/28 10:02:26;;;;;;;;;;;;;;;14.96;100.00;101186.34;4424537;32;34640;-83
2022/10/28 10:05:14;;;;;;;;;;;;;;;15.31;100.00;101182.09;4429639;32;36209;-82
2022/10/28 10:08:05;;;;;;;;;;;;;;;15.06;100.00;101184.22;4418743;32;34853;-81
2022/10/28 10:10:59;;;;;;;;;;;;;;;15.14;100.00;101173.59;4429530;32;34162;-82
2022/10/28 10:13:57;;;;;;;;;;;;;;;15.15;100.00;101173.31;4429498;32;33749;-82
2022/10/28 10:16:53;;;;;;;;;;;;;;;14.87;100.00;101164.16;4442367;32;35303;-82
2022/10/28 10:20:00;;;;;;;;;;;;;;;14.53;100.00;101172.72;4441142;32;35918;-82
2022/10/28 10:22:48;;;;;;;;;;;;;;;13.45;100.00;101176.91;4453707;32;34334;-82
2022/10/28 10:25:41;;;;;;;;;;;;;;;14.44;100.00;101178.06;4443432;32;33760;-83
2022/10/28 10:28:28;;;;;;;;;;;;;;;14.71;100.00;101174.62;4438413;32;35405;-82
2022/10/28 10:31:18;;;;;;;;;;;;;;;14.77;100.00;101178.94;4441223;32;34904;-82
2022/10/28 10:34:16;;;;;;;;;;;;;;;14.69;100.00;101179.63;4431795;32;34119;-82
2022/10/28 10:37:04;;;;;;;;;;;;;;;14.67;100.00;101178.28;4442855;32;36053;-83
2022/10/28 10:40:18;;;;;;;;;;;;;;;14.85;100.00;101164.44;4444240;32;35256;-82
2022/10/28 10:43:17;;;;;;;;;;;;;;;14.77;100.00;101162.41;4451870;32;35093;-82
2022/10/28 10:46:14;;;;;;;;;;;;;;;14.80;100.00;101163.75;4456978;32;34572;-82
2022/10/28 10:49:13;;;;;;;;;;;;;;;15.02;100.00;101163.88;4442186;32;33744;-83
2022/10/28 10:52:01;;;;;;;;;;;;;;;15.08;100.00;101164.59;4456071;32;34711;-83
2022/10/28 10:55:00;;;;;;;;;;;;;;;15.39;100.00;101159.31;4428103;32;34847;-82
2022/10/28 10:57:47;;;;;;;;;;;;;;;14.38;100.00;101163.53;4453723;32;33726;-82
2022/10/28 11:00:37;;;;;;;;;;;;;;;14.69;100.00;101160.31;4438567;32;35854;-82
2022/10/28 11:03:28;;;;;;;;;;;;;;;14.97;100.00;101163.13;4433842;32;35225;-83
2022/10/28 11:06:25;;;;;;;;;;;;;;;15.24;100.00;101160.44;4458982;32;34872;-83
2022/10/28 11:09:28;;;;;;;;;;;;;;;15.16;100.00;101152.84;4440074;32;33874;-82
2022/10/28 11:12:26;;;;;;;;;;;;;;;15.46;100.00;101156.97;4457075;32;34592;-83
2022/10/28 11:15:27;;;;;;;;;;;;;;;15.39;100.00;101164.03;4459324;32;35182;-82
2022/10/28 11:21:31;;;;;;;;;;;;;;;15.44;100.00;101153.69;4444902;32;34269;-83
2022/10/28 11:24:37;;;;;;;;;;;;;;;15.28;100.00;101155.94;4453678;32;34949;-83
2022/10/28 11:27:42;;;;;;;;;;;;;;;15.34;100.00;101153.06;4461663;32;36118;-82
2022/10/28 11:30:38;;;;;;;;;;;;;;;14.24;100.00;101154.38;4453777;32;34865;-82
2022/10/28 11:33:33;;;;;;;;;;;;;;;14.89;100.00;101153.62;4448283;32;34030;-82
2022/10/28 11:36:28;;;;;;;;;;;;;;;15.44;100.00;101156.44;4439200;32;34491;-83
2022/10/28 11:39:20;;;;;;;;;;;;;;;15.25;100.00;101159.31;4447059;32;35297;-82
2022/10/28 11:42:14;;;;;;;;;;;;;;;14.84;100.00;101146.25;4436059;32;35652;-83
2022/10/28 11:45:09;;;;;;;;;;;;;;;14.77;100.00;101145.84;4458305;32;34505;-83
2022/10/28 11:54:12;;;;;;;;;;;;;;;15.12;100.00;101134.47;4440366;32;34417;-82
2022/10/28 11:57:14;;;;;;;;;;;;;;;15.02;100.00;101129.94;4455705;32;34723;-83
2022/10/28 12:00:25;;;;;;;;;;;;;;;15.09;100.00;101122.09;4440425;32;33721;-83
2022/10/28 12:03:20;;;;;;;;;;;;;;;15.50;100.00;101127.59;4454510;32;35206;-83
2022/10/28 12:06:23;;;;;;;;;;;;;;;15.42;100.00;101122.78;4439941;32;35364;-83
2022/10/28 12:09:24;;;;;;;;;;;;;;;15.17;100.00;101113.09;4409783;32;34545;-82
2022/10/28 12:12:28;;;;;;;;;;;;;;;14.71;100.00;101119.44;4441031;32;35146;-82
2022/10/28 12:15:30;;;;;;;;;;;;;;;15.14;100.00;101119.22;4416709;32;35202;-83
2022/10/28 12:18:18;;;;;;;;;;;;;;;15.67;100.00;101109.56;4418907;32;35783;-82
2022/10/28 12:21:23;;;;;;;;;;;;;;;15.34;100.00;101106.97;4441695;32;34992;-83
2022/10/28 12:27:17;;;;;;;;;;;;;;;15.01;100.00;101106.22;4431856;32;35241;-82
2022/10/28 12:30:20;;;;;;;;;;;;;;;15.22;100.00;101107.44;4431813;32;34450;-83
2022/10/28 12:33:22;;;;;;;;;;;;;;;15.48;100.00;101102.25;4420656;32;33658;-82
2022/10/28 12:36:34;;;;;;;;;;;;;;;15.47;100.00;101099.78;4433430;32;34802;-82
2022/10/28 12:39:25;;;;;;;;;;;;;;;15.64;100.00;101099.16;4425608;32;35268;-81
2022/10/28 12:45:15;;;;;;;;;;;;;;;15.46;100.00;101095.38;4426640;32;34581;-83
2022/10/28 12:51:16;;;;;;;;;;;;;;;15.34;100.00;101089.56;4442333;32;35997;-82
2022/10/28 12:54:22;;;;;;;;;;;;;;;14.78;100.00;101078.50;4408372;32;35035;-82
2022/10/28 12:57:12;;;;;;;;;;;;;;;15.20;100.00;101082.09;4442309;32;34251;-82
2022/10/28 13:00:02;;;;;;;;;;;;;;;15.47;100.00;101080.44;4437797;32;34948;-83
2022/10/28 13:03:03;;;;;;;;;;;;;;;14.47;100.00;101088.41;4439147;32;35532;-83
2022/10/28 13:06:15;;;;;;;;;;;;;;;15.00;100.00;101079.75;4428532;32;34355;-83
2022/10/28 13:09:12;;;;;;;;;;;;;;;15.13;100.00;101069.81;4441958;32;34196;-83
2022/10/28 13:12:08;;;;;;;;;;;;;;;15.06;100.00;101071.06;4428450;32;34889;-82
2022/10/28 13:15:01;;;;;;;;;;;;;;;15.29;100.00;101074.72;4438996;32;35438;-82
2022/10/28 13:21:21;;;;;;;;;;;;;;;15.26;100.00;101066.25;4442641;32;34942;-82
2022/10/28 13:24:28;;;;;;;;;;;;;;;15.47;100.00;101078.50;4442647;32;35035;-83
2022/10/28 13:27:15;;;;;;;;;;;;;;;15.20;100.00;101076.59;4441539;32;36128;-82
2022/10/28 13:30:16;;;;;;;;;;;;;;;15.64;100.00;101085.34;4418248;32;34904;-82
2022/10/28 13:33:05;;;;;;;;;;;;;;;15.73;100.00;101077.97;4439313;32;34175;-82
2022/10/28 13:36:15;;;;;;;;;;;;;;;15.60;100.00;101078.81;4430781;32;35875;-83
2022/10/28 13:39:03;;;;;;;;;;;;;;;15.73;100.00;101073.25;4435742;32;35287;-83
2022/10/28 13:42:14;;;;;;;;;;;;;;;15.80;100.00;101083.91;4431700;32;34927;-82
2022/10/28 13:45:29;;;;;;;;;;;;;;;15.16;100.00;101077.50;4452054;32;34147;-82
2022/10/28 13:48:27;;;;;;;;;;;;;;;15.26;100.00;101075.34;4443470;32;35813;-82
2022/10/28 13:51:14;;;;;;;;;;;;;;;15.47;100.00;101069.41;4451347;32;35294;-82
2022/10/28 13:54:24;;;;;;;;;;;;;;;15.29;100.00;101073.94;4434937;32;35395;-82
2022/10/28 13:57:26;;;;;;;;;;;;;;;15.65;100.00;101065.69;4434394;32;33867;-82
2022/10/28 14:00:22;;;;;;;;;;;;;;;15.56;100.00;101067.53;4425113;32;33890;-82
2022/10/28 14:03:19;;;;;;;;;;;;;;;15.27;100.00;101065.13;4451347;32;35613;-83
2022/10/28 14:06:30;;;;;;;;;;;;;;;14.80;100.00;101067.16;4437916;32;34763;-82
2022/10/28 14:09:31;;;;;;;;;;;;;;;15.04;100.00;101072.50;4440802;32;34552;-83
2022/10/28 14:12:22;;;;;;;;;;;;;;;15.35;100.00;101077.41;4440727;32;35853;-82
2022/10/28 14:15:12;;;;;;;;;;;;;;;15.40;100.00;101082.81;4440956;32;36024;-82
2022/10/28 14:18:19;;;;;;;;;;;;;;;15.60;100.00;101085.16;4429821;32;35092;-82
2022/10/28 14:24:41;;;;;;;;;;;;;;;15.83;100.00;101076.94;4442125;32;34914;-83
2022/10/28 14:27:35;;;;;;;;;;;;;;;15.76;100.00;101079.28;4455961;32;36296;-82
2022/10/28 14:30:28;;;;;;;;;;;;;;;15.78;100.00;101079.81;4454143;32;34951;-83
2022/10/28 14:33:20;;;;;;;;;;;;;;;15.43;100.00;101068.41;4440567;32;33611;-83
2022/10/28 14:36:20;;;;;;;;;;;;;;;15.21;100.00;101063.59;4431627;32;37652;-83
2022/10/28 14:39:22;;;;;;;;;;;;;;;15.36;100.00;101067.97;4460703;32;35340;-82
2022/10/28 14:42:17;;;;;;;;;;;;;;;15.60;100.00;101063.03;4440290;32;34369;-82
2022/10/28 14:48:07;;;;;;;;;;;;;;;15.54;100.00;101072.56;4443539;32;36022;-82
2022/10/28 14:50:55;;;;;;;;;;;;;;;15.77;100.00;101072.62;4452448;32;34701;-82
2022/10/28 14:53:43;;;;;;;;;;;;;;;15.80;100.00;101060.97;4437893;32;34939;-82
2022/10/28 14:59:39;;;;;;;;;;;;;;;15.59;100.00;101061.38;4441259;32;34710;-83
2022/10/28 15:02:29;;;;;;;;;;;;;;;15.65;100.00;101060.16;4428883;32;36147;-83
2022/10/28 15:05:29;;;;;;;;;;;;;;;14.92;100.00;101058.38;4431658;32;34927;-83
2022/10/28 15:08:18;;;;;;;;;;;;;;;15.25;100.00;101057.16;4450920;32;34104;-83
2022/10/28 15:11:08;;;;;;;;;;;;;;;15.66;100.00;101053.50;4430147;32;34971;-83